Time;durP1;ratioP1;P1;durP2;ratioP2;P2;SDS_P1;SDS_P2;PMS_P1;PMS_P2;Temp;Humidity;BMP_temperature;BMP_pressure;BME280_temperature;BME280_humidity;BME280_pressure;Samples;Min_cycle;Max_cycle;Signal;HPM_P1;HPM_P2
2021/05/26 02:19:22;;;;;;;;;3.00;1.75;;;;;15.85;45.17;98668.41;6300649;22;101322;-96
2021/05/26 02:21:55;;;;;;;;;2.00;2.00;;;;;15.79;44.26;98669.34;6302996;22;101614;-96
2021/05/26 02:24:28;;;;;;;;;3.00;2.00;;;;;15.78;44.32;98662.22;6278235;22;102313;-96
2021/05/26 02:27:03;;;;;;;;;2.00;2.00;;;;;15.79;44.76;98663.06;6301067;22;104180;-96
2021/05/26 02:29:40;;;;;;;;;2.00;2.00;;;;;15.75;44.51;98665.44;6299979;22;101206;-96
2021/05/26 02:32:14;;;;;;;;;3.00;2.00;;;;;15.78;44.88;98677.75;6256370;22;101715;-96
2021/05/26 02:34:53;;;;;;;;;2.00;2.00;;;;;15.76;44.90;98669.78;6179578;22;101951;-96
2021/05/26 02:37:26;;;;;;;;;2.00;2.00;;;;;15.68;45.17;98672.84;6294906;22;103465;-96
2021/05/26 02:40:21;;;;;;;;;1.00;1.00;;;;;15.75;44.73;98679.06;6251126;22;102138;-96
2021/05/26 02:42:56;;;;;;;;;1.00;1.00;;;;;15.68;44.28;98689.22;6141447;22;102088;-96
2021/05/26 02:45:34;;;;;;;;;2.00;2.00;;;;;15.68;44.73;98672.84;6228068;22;101974;-96
2021/05/26 02:48:09;;;;;;;;;1.25;1.00;;;;;15.69;45.02;98673.69;6220862;22;102095;-96
2021/05/26 02:50:47;;;;;;;;;2.00;2.00;;;;;15.67;44.71;98673.91;6248074;22;101758;-96
2021/05/26 02:53:24;;;;;;;;;1.25;1.25;;;;;15.68;44.58;98688.38;6187153;22;101994;-96
2021/05/26 02:55:56;;;;;;;;;1.00;1.00;;;;;15.68;44.84;98694.66;6228024;22;102167;-96
2021/05/26 02:58:35;;;;;;;;;2.00;2.00;;;;;15.61;45.27;98691.22;6201840;22;105142;-96
2021/05/26 03:01:18;;;;;;;;;2.50;2.00;;;;;15.61;44.53;98688.50;6260861;22;102213;-96
2021/05/26 03:03:53;;;;;;;;;3.25;2.00;;;;;15.58;44.26;98686.22;6252023;22;102214;-96
2021/05/26 03:06:30;;;;;;;;;2.00;1.75;;;;;15.52;44.39;98681.69;6135495;22;102091;-96
2021/05/26 03:09:20;;;;;;;;;3.00;1.75;;;;;15.54;44.01;98671.38;6159615;22;109876;-96
2021/05/26 03:12:03;;;;;;;;;2.00;2.00;;;;;15.54;44.67;98671.38;6199219;22;103044;-96
2021/05/26 03:14:36;;;;;;;;;3.00;2.75;;;;;15.53;44.03;98683.38;6152611;22;101643;-96
2021/05/26 03:17:05;;;;;;;;;2.75;1.50;;;;;15.56;44.18;98696.53;6061657;22;107713;-96
2021/05/26 03:19:35;;;;;;;;;2.00;2.00;;;;;15.57;44.29;98688.13;6103157;22;104004;-96
2021/05/26 03:22:06;;;;;;;;;2.00;2.00;;;;;15.52;44.42;98676.25;6088154;22;104776;-96
2021/05/26 03:24:36;;;;;;;;;1.00;1.00;;;;;15.51;44.25;98671.84;6165440;22;101279;-96
2021/05/26 03:27:06;;;;;;;;;1.00;1.00;;;;;15.50;44.07;98681.06;6100550;22;104468;-96
2021/05/26 03:29:34;;;;;;;;;2.00;1.00;;;;;15.56;44.05;98693.78;6152112;22;104291;-96
2021/05/26 03:32:02;;;;;;;;;2.00;2.00;;;;;15.46;44.16;98685.31;6126607;22;101806;-96
2021/05/26 03:34:33;;;;;;;;;2.00;1.00;;;;;15.56;43.71;98696.53;6015115;22;103385;-96
2021/05/26 03:37:01;;;;;;;;;1.00;1.00;;;;;15.49;43.81;98695.75;6071452;22;102179;-96
2021/05/26 03:39:29;;;;;;;;;2.25;1.00;;;;;15.53;43.97;98699.72;6124363;22;104918;-96
2021/05/26 03:42:03;;;;;;;;;2.00;1.50;;;;;15.42;44.32;98695.00;6066306;22;102214;-96
2021/05/26 03:44:33;;;;;;;;;1.00;1.00;;;;;15.44;44.22;98695.63;6043883;22;101963;-96
2021/05/26 03:47:03;;;;;;;;;2.25;1.00;;;;;15.42;43.56;98697.72;6040518;22;102159;-96
2021/05/26 03:49:33;;;;;;;;;1.00;1.00;;;;;15.39;44.06;98701.75;5991364;22;104089;-96
2021/05/26 03:52:20;;;;;;;;;1.00;1.00;;;;;15.39;43.78;98712.66;6038287;22;102835;-96
2021/05/26 03:54:50;;;;;;;;;2.00;1.00;;;;;15.41;43.78;98715.13;5994645;22;103434;-96
2021/05/26 03:57:48;;;;;;;;;1.00;1.00;;;;;15.27;44.18;98689.09;5992545;22;102934;-96
2021/05/26 04:00:20;;;;;;;;;2.50;2.00;;;;;15.44;44.10;98720.97;5988091;22;110220;-96
2021/05/26 04:02:48;;;;;;;;;1.75;1.00;;;;;15.37;43.87;98712.03;5994937;22;101892;-96
2021/05/26 04:05:19;;;;;;;;;2.00;1.00;;;;;15.33;44.20;98713.56;6019638;22;101729;-96
2021/05/26 04:07:57;;;;;;;;;0.75;0.75;;;;;15.39;44.27;98722.72;6060936;22;101364;-96
2021/05/26 04:10:30;;;;;;;;;1.50;1.00;;;;;15.31;44.07;98723.03;6022507;22;103102;-96
2021/05/26 04:13:10;;;;;;;;;2.00;0.75;;;;;15.35;44.09;98729.69;5983605;22;101381;-96
2021/05/26 04:15:42;;;;;;;;;1.00;1.00;;;;;15.11;43.84;98705.03;5973729;22;101384;-96
2021/05/26 04:18:13;;;;;;;;;2.00;1.00;;;;;15.28;44.28;98718.84;6041968;22;102001;-96
2021/05/26 04:20:42;;;;;;;;;2.00;1.00;;;;;15.29;44.23;98716.97;6030162;22;106445;-96
2021/05/26 04:23:18;;;;;;;;;2.00;1.00;;;;;15.32;44.48;98716.50;5909939;22;102282;-96
2021/05/26 04:25:53;;;;;;;;;0.00;0.00;;;;;15.26;44.37;98717.44;6008096;22;102020;-95
2021/05/26 04:28:23;;;;;;;;;1.00;1.00;;;;;15.31;44.47;98721.13;6016442;22;102679;-96
2021/05/26 04:30:54;;;;;;;;;1.75;1.00;;;;;15.21;44.43;98700.94;6059569;22;105273;-96
2021/05/26 04:33:29;;;;;;;;;2.00;1.00;;;;;15.27;44.37;98722.63;5931239;22;102087;-96
2021/05/26 04:36:05;;;;;;;;;1.00;1.00;;;;;15.27;44.15;98719.06;5997326;22;101326;-96
2021/05/26 04:38:38;;;;;;;;;0.00;0.00;;;;;15.28;43.87;98729.75;5993710;22;102615;-96
2021/05/26 04:41:16;;;;;;;;;0.00;0.00;;;;;15.29;44.74;98715.09;6037374;22;106961;-96
2021/05/26 04:43:54;;;;;;;;;0.75;0.25;;;;;15.30;44.50;98730.38;5881425;22;102151;-96
2021/05/26 04:46:23;;;;;;;;;1.00;1.00;;;;;15.28;44.26;98737.09;6009530;22;101850;-96
2021/05/26 04:48:55;;;;;;;;;1.00;1.00;;;;;15.28;44.06;98729.75;6113907;22;101721;-96
2021/05/26 04:51:30;;;;;;;;;1.00;1.00;;;;;15.25;44.36;98735.66;6035486;22;105776;-96
2021/05/26 04:54:05;;;;;;;;;1.00;0.75;;;;;15.19;44.37;98731.97;6044263;22;102028;-96
2021/05/26 04:56:36;;;;;;;;;1.50;1.00;;;;;15.21;44.32;98742.63;6120133;22;102206;-96
2021/05/26 04:59:08;;;;;;;;;0.75;0.75;;;;;15.28;43.86;98737.09;6020283;22;101997;-96
2021/05/26 05:01:38;;;;;;;;;0.00;0.00;;;;;15.26;44.28;98733.78;6016551;22;102117;-96
2021/05/26 05:04:08;;;;;;;;;1.00;1.00;;;;;15.28;44.56;98737.09;6094622;22;101861;-96
2021/05/26 05:06:49;;;;;;;;;0.75;0.75;;;;;15.21;44.37;98720.84;6094549;22;102079;-96
2021/05/26 05:09:20;;;;;;;;;0.75;0.50;;;;;15.25;44.20;98734.84;6106063;22;101833;-96
2021/05/26 05:11:49;;;;;;;;;0.00;0.00;;;;;15.24;44.32;98730.44;6132398;22;103935;-96
2021/05/26 05:14:18;;;;;;;;;1.50;1.00;;;;;15.23;44.27;98728.78;6131101;22;102366;-96
2021/05/26 05:16:46;;;;;;;;;0.00;0.00;;;;;15.25;44.34;98732.09;6153674;22;101960;-96
2021/05/26 05:19:14;;;;;;;;;1.00;1.00;;;;;15.23;44.10;98723.31;6121931;22;102427;-96
2021/05/26 05:21:42;;;;;;;;;0.00;0.00;;;;;15.34;44.10;98747.09;6147034;22;109928;-96
2021/05/26 05:24:13;;;;;;;;;1.00;1.00;;;;;15.16;44.03;98712.53;6194765;22;101935;-96
2021/05/26 05:26:41;;;;;;;;;1.00;1.00;;;;;15.29;44.98;98733.31;6242323;22;102254;-96
2021/05/26 05:29:10;;;;;;;;;2.50;1.00;;;;;15.30;44.42;98737.72;6213309;22;102493;-96
2021/05/26 05:31:39;;;;;;;;;0.75;0.75;;;;;15.36;44.47;98740.34;6131288;22;102187;-96
2021/05/26 05:34:11;;;;;;;;;1.00;1.00;;;;;15.36;44.50;98729.44;6088306;22;103289;-96
2021/05/26 05:36:39;;;;;;;;;0.00;0.00;;;;;15.37;44.75;98730.28;6182775;22;102241;-96
2021/05/26 05:39:07;;;;;;;;;0.00;0.00;;;;;15.33;45.14;98726.34;6210412;22;110716;-96
2021/05/26 05:41:38;;;;;;;;;0.00;0.00;;;;;15.37;45.01;98727.56;6172898;22;104781;-96
2021/05/26 05:44:12;;;;;;;;;0.00;0.00;;;;;15.31;44.90;98715.66;6093501;22;101698;-96
2021/05/26 05:46:39;;;;;;;;;0.00;0.00;;;;;15.37;44.80;98727.56;6164553;22;102148;-96
2021/05/26 05:49:08;;;;;;;;;0.00;0.00;;;;;15.36;44.46;98712.25;6178065;22;105501;-96
2021/05/26 05:51:38;;;;;;;;;0.00;0.00;;;;;15.35;44.48;98722.34;6102390;22;103240;-96
2021/05/26 05:54:09;;;;;;;;;0.00;0.00;;;;;15.35;44.61;98718.78;6127329;22;103634;-96
2021/05/26 05:56:38;;;;;;;;;1.00;0.50;;;;;15.35;44.63;98714.19;6178767;22;102310;-96
2021/05/26 05:59:10;;;;;;;;;0.67;0.00;;;;;15.40;45.18;98721.66;6100520;22;102565;-96
2021/05/26 06:01:41;;;;;;;;;0.00;0.00;;;;;15.40;45.36;98724.38;6083755;22;102105;-96
2021/05/26 06:04:11;;;;;;;;;0.00;0.00;;;;;15.40;45.06;98717.03;6222805;22;101925;-96
2021/05/26 06:06:40;;;;;;;;;1.25;1.00;;;;;15.48;44.94;98734.97;6095636;22;102147;-96
2021/05/26 06:09:12;;;;;;;;;0.00;0.00;;;;;15.42;45.18;98716.81;6088338;22;107062;-96
2021/05/26 06:11:45;;;;;;;;;0.00;0.00;;;;;15.45;45.00;98721.78;6117949;22;107924;-96
2021/05/26 06:14:19;;;;;;;;;0.00;0.00;;;;;15.43;45.25;98723.91;6171538;22;101949;-96
2021/05/26 06:16:47;;;;;;;;;0.50;0.00;;;;;15.45;44.79;98721.78;6219902;22;102124;-96
2021/05/26 06:19:15;;;;;;;;;1.00;0.00;;;;;15.45;45.32;98721.78;6176542;22;102139;-96
2021/05/26 06:21:44;;;;;;;;;0.00;0.00;;;;;15.47;45.25;98719.66;6230772;22;105350;-96
2021/05/26 06:24:13;;;;;;;;;1.00;0.00;;;;;15.48;45.40;98726.78;6140994;22;102075;-96
2021/05/26 06:26:41;;;;;;;;;1.25;0.00;;;;;15.49;45.55;98712.13;6241032;22;101955;-96
2021/05/26 06:29:10;;;;;;;;;0.00;0.00;;;;;15.54;45.54;98715.81;6167358;22;104548;-96
2021/05/26 06:31:38;;;;;;;;;0.00;0.00;;;;;15.52;45.51;98720.69;6164486;22;104097;-96
2021/05/26 06:34:06;;;;;;;;;1.00;1.00;;;;;15.44;45.61;98696.44;6152892;22;102031;-96
2021/05/26 06:36:35;;;;;;;;;0.25;0.25;;;;;15.54;45.62;98702.19;6201840;22;104985;-96
2021/05/26 06:39:04;;;;;;;;;0.00;0.00;;;;;15.56;45.86;98701.97;6218914;22;101815;-96
2021/05/26 06:41:33;;;;;;;;;0.00;0.00;;;;;15.55;45.69;98705.75;6111031;22;105687;-96
2021/05/26 06:44:02;;;;;;;;;1.00;0.00;;;;;15.54;46.15;98704.09;6203402;22;102439;-96
2021/05/26 06:46:30;;;;;;;;;0.00;0.00;;;;;15.55;45.99;98712.03;6151703;22;102249;-96
2021/05/26 06:48:58;;;;;;;;;1.00;0.00;;;;;15.57;46.18;98709.94;6197062;22;101808;-96
2021/05/26 06:51:28;;;;;;;;;0.00;0.00;;;;;15.58;45.86;98708.00;6185163;22;104721;-96
2021/05/26 06:53:56;;;;;;;;;0.00;0.00;;;;;15.61;45.67;98705.69;6136280;22;102518;-96
2021/05/26 06:56:26;;;;;;;;;0.00;0.00;;;;;15.67;45.77;98706.63;6199540;22;104586;-96
2021/05/26 06:58:55;;;;;;;;;1.00;0.00;;;;;15.70;45.96;98706.19;6165590;22;102195;-96
2021/05/26 07:01:25;;;;;;;;;0.00;0.00;;;;;15.69;46.24;98700.94;6215090;22;104307;-96
2021/05/26 07:03:53;;;;;;;;;0.00;0.00;;;;;15.73;46.20;98711.16;6204390;22;102927;-96
2021/05/26 07:06:22;;;;;;;;;0.75;0.00;;;;;15.70;46.33;98708.91;6166287;22;102486;-96
2021/05/26 07:08:50;;;;;;;;;0.00;0.00;;;;;15.74;45.63;98712.84;6249739;22;102175;-96
2021/05/26 07:11:21;;;;;;;;;0.00;0.00;;;;;15.78;46.09;98711.31;6168587;22;106679;-96
2021/05/26 07:13:49;;;;;;;;;0.00;0.00;;;;;15.76;46.14;98697.06;6219209;22;102200;-96
2021/05/26 07:16:17;;;;;;;;;1.00;0.00;;;;;15.79;45.94;98696.63;6145899;22;102118;-96
2021/05/26 07:18:48;;;;;;;;;0.00;0.00;;;;;15.79;45.85;98704.78;6199786;22;102434;-96
2021/05/26 07:21:16;;;;;;;;;0.00;0.00;;;;;15.81;46.21;98693.63;6173603;22;107774;-96
2021/05/26 07:23:49;;;;;;;;;0.00;0.00;;;;;15.86;45.91;98697.34;6145491;22;102031;-96
2021/05/26 07:26:20;;;;;;;;;0.00;0.00;;;;;15.86;46.24;98688.31;6125482;22;102286;-96
2021/05/26 07:28:49;;;;;;;;;0.00;0.00;;;;;15.88;46.36;98695.22;6189732;22;102511;-96
2021/05/26 07:31:19;;;;;;;;;0.00;0.00;;;;;15.91;47.02;98691.19;6190428;22;109694;-96
2021/05/26 07:33:47;;;;;;;;;1.00;0.00;;;;;15.90;46.25;98694.97;6244096;22;102472;-96
2021/05/26 07:36:16;;;;;;;;;0.00;0.00;;;;;15.93;46.62;98678.16;6169813;22;104134;-96
2021/05/26 07:38:45;;;;;;;;;0.00;0.00;;;;;15.97;46.52;98688.38;6185158;22;102196;-96
2021/05/26 07:41:15;;;;;;;;;0.00;0.00;;;;;15.91;46.59;98672.94;6179709;22;104866;-96
2021/05/26 07:43:46;;;;;;;;;0.00;0.00;;;;;16.01;46.11;98692.28;6127154;22;102244;-96
2021/05/26 07:46:15;;;;;;;;;0.00;0.00;;;;;16.03;46.19;98681.13;6141048;22;101755;-96
2021/05/26 07:48:43;;;;;;;;;0.00;0.00;;;;;15.98;46.54;98667.38;6214847;22;103873;-96
2021/05/26 07:51:15;;;;;;;;;0.00;0.00;;;;;16.01;46.39;98675.94;6233355;22;103788;-96
2021/05/26 07:53:48;;;;;;;;;0.00;0.00;;;;;16.01;46.04;98675.94;6181160;22;102154;-96
2021/05/26 07:56:20;;;;;;;;;0.00;0.00;;;;;16.05;45.67;98668.94;6133272;22;101780;-96
2021/05/26 07:58:52;;;;;;;;;0.00;0.00;;;;;16.03;46.20;98657.41;6141471;22;102250;-96
2021/05/26 08:01:36;;;;;;;;;0.00;0.00;;;;;15.94;46.09;98638.94;6054836;22;108306;-96
2021/05/26 08:04:06;;;;;;;;;0.00;0.00;;;;;16.07;45.94;98661.34;6077958;22;102673;-96
2021/05/26 08:06:35;;;;;;;;;0.00;0.00;;;;;16.09;45.88;98655.66;6180529;22;102839;-96
2021/05/26 08:09:04;;;;;;;;;0.75;0.00;;;;;16.07;45.89;98655.06;6117639;22;102491;-96
2021/05/26 08:11:32;;;;;;;;;0.00;0.00;;;;;16.07;45.58;98661.34;6170772;22;104439;-96
2021/05/26 08:14:00;;;;;;;;;0.00;0.00;;;;;16.10;46.25;98645.56;6230494;22;101295;-96
2021/05/26 08:16:29;;;;;;;;;0.00;0.00;;;;;16.10;45.87;98638.22;6241993;22;102049;-96
2021/05/26 08:18:58;;;;;;;;;0.00;0.00;;;;;16.16;46.04;98659.13;6141429;22;101928;-96
2021/05/26 08:21:29;;;;;;;;;1.00;0.00;;;;;16.16;46.25;98652.81;6199198;22;102025;-96
2021/05/26 08:23:57;;;;;;;;;0.00;0.00;;;;;16.16;46.19;98652.81;6243353;22;101926;-96
2021/05/26 08:26:25;;;;;;;;;0.00;0.00;;;;;16.18;46.06;98645.22;6263214;22;101320;-96
2021/05/26 08:28:55;;;;;;;;;0.00;0.00;;;;;16.19;46.07;98641.44;6184845;22;101967;-96
2021/05/26 08:31:25;;;;;;;;;0.00;0.00;;;;;16.20;46.21;98634.91;6261948;22;107932;-96
2021/05/26 08:33:53;;;;;;;;;0.00;0.00;;;;;16.21;45.98;98639.31;6252088;22;101157;-96
2021/05/26 08:36:22;;;;;;;;;1.00;0.00;;;;;16.21;45.68;98652.97;6155538;22;101475;-96
2021/05/26 08:38:53;;;;;;;;;0.00;0.00;;;;;16.22;46.18;98641.78;6197040;22;101915;-96
2021/05/26 08:41:24;;;;;;;;;0.00;0.00;;;;;16.30;46.20;98646.09;6273893;22;107486;-96
2021/05/26 08:43:53;;;;;;;;;0.00;0.00;;;;;16.23;45.88;98635.28;6189047;22;101826;-96
2021/05/26 08:46:22;;;;;;;;;0.00;0.00;;;;;16.28;45.82;98631.84;6262401;22;101923;-96
2021/05/26 08:49:01;;;;;;;;;0.00;0.00;;;;;16.29;46.20;98637.06;6075048;22;102025;-96
2021/05/26 08:52:12;;;;;;;;;0.00;0.00;;;;;16.29;46.02;98614.41;5816023;22;105890;-96
